createdAt,value
2023-05-11T00:00:46.921Z,3.80
2023-05-11T00:05:49.288Z,4.07
2023-05-11T00:10:50.753Z,4.15
2023-05-11T00:15:52.198Z,4.07
2023-05-11T00:20:54.630Z,4.22
2023-05-11T00:25:56.150Z,3.83
2023-05-11T00:30:57.953Z,3.70
2023-05-11T00:35:59.540Z,4.47
2023-05-11T00:41:00.965Z,3.67
2023-05-11T00:46:03.255Z,3.58
2023-05-11T00:51:04.957Z,3.80
2023-05-11T00:56:06.674Z,3.95
2023-05-11T01:01:08.347Z,4.05
2023-05-11T01:06:32.445Z,3.60
2023-05-11T01:11:43.672Z,4.22
2023-05-11T01:16:49.458Z,3.78
2023-05-11T01:21:51.460Z,3.95
2023-05-11T01:27:11.413Z,3.33
2023-05-11T01:32:18.733Z,4.18
2023-05-11T01:37:25.244Z,4.00
2023-05-11T01:42:35.372Z,4.78
2023-05-11T01:47:37.350Z,4.22
2023-05-11T01:52:39.831Z,4.63
2023-05-11T01:57:41.499Z,4.13
2023-05-11T02:02:45.260Z,4.78
2023-05-11T02:07:49.786Z,4.50
2023-05-11T02:12:52.227Z,4.22
2023-05-11T02:17:54.448Z,4.85
2023-05-11T02:22:56.740Z,4.28
2023-05-11T02:27:58.169Z,4.38
2023-05-11T02:33:05.500Z,4.75
2023-05-11T02:38:07.209Z,4.43
2023-05-11T02:43:10.435Z,4.10
2023-05-11T02:48:17.279Z,4.78
2023-05-11T02:53:19.090Z,5.32
2023-05-11T02:58:21.006Z,5.78
2023-05-11T03:03:22.673Z,6.20
2023-05-11T03:08:24.209Z,5.93
2023-05-11T03:13:26.105Z,5.50
2023-05-11T03:18:29.429Z,5.18
2023-05-11T03:23:31.284Z,4.50
2023-05-11T03:28:34.716Z,4.00
2023-05-11T03:33:36.285Z,4.55
2023-05-11T03:38:38.993Z,3.85
2023-05-11T03:43:40.600Z,4.07
2023-05-11T03:48:42.507Z,4.07
2023-05-11T03:53:44.093Z,3.42
2023-05-11T03:58:45.878Z,3.47
2023-05-11T04:03:49.645Z,3.83
2023-05-11T04:08:51.345Z,3.78
2023-05-11T04:13:52.878Z,3.50
2023-05-11T04:18:54.410Z,4.15
2023-05-11T04:23:55.850Z,3.67
2023-05-11T04:28:57.355Z,3.90
2023-05-11T04:33:59.628Z,3.40
2023-05-11T04:39:01.109Z,3.85
2023-05-11T04:44:02.542Z,3.60
2023-05-11T04:49:04.554Z,3.63
2023-05-11T04:54:06.442Z,3.55
2023-05-11T04:59:08.264Z,3.85
2023-05-11T05:04:09.905Z,3.67
2023-05-11T05:09:11.435Z,4.03
2023-05-11T05:14:12.904Z,3.83
2023-05-11T05:19:15.648Z,3.55
2023-05-11T05:24:17.065Z,4.13
2023-05-11T05:29:18.473Z,3.50
2023-05-11T05:34:19.855Z,3.42
2023-05-11T05:39:21.399Z,3.60
2023-05-11T05:44:23.071Z,4.43
2023-05-11T05:49:24.518Z,4.15
2023-05-11T05:54:25.983Z,3.65
2023-05-11T05:59:27.420Z,3.90
2023-05-11T06:04:28.868Z,3.58
2023-05-11T06:09:30.319Z,3.55
2023-05-11T06:14:32.146Z,4.55
2023-05-11T06:19:33.646Z,4.03
2023-05-11T06:24:35.096Z,5.07
2023-05-11T06:29:36.509Z,4.40
2023-05-11T06:34:39.440Z,6.00
2023-05-11T06:39:42.019Z,5.93
2023-05-11T06:44:43.542Z,7.28
2023-05-11T06:49:45.101Z,6.95
2023-05-11T06:54:47.062Z,8.02
2023-05-11T06:59:48.520Z,8.18
2023-05-11T07:04:50.039Z,9.18
2023-05-11T07:09:51.468Z,8.35
2023-05-11T07:14:52.927Z,7.68
2023-05-11T07:19:55.475Z,8.18
2023-05-11T07:24:56.924Z,8.60
2023-05-11T07:29:58.318Z,8.27
2023-05-11T07:34:59.833Z,8.00
2023-05-11T07:40:01.252Z,7.75
2023-05-11T07:45:02.709Z,7.47
2023-05-11T07:50:05.286Z,7.15
2023-05-11T07:55:06.891Z,7.57
2023-05-11T08:00:10.850Z,7.07
2023-05-11T08:05:12.660Z,7.18
2023-05-11T08:10:14.258Z,7.88
2023-05-11T08:15:15.705Z,6.82
2023-05-11T08:20:17.185Z,6.93
2023-05-11T08:25:18.831Z,7.32
2023-05-11T08:30:20.729Z,6.78
2023-05-11T08:35:22.518Z,5.95
2023-05-11T08:40:26.737Z,6.45
2023-05-11T08:45:30.172Z,7.18
2023-05-11T08:50:31.818Z,6.43
2023-05-11T08:55:36.286Z,6.57
2023-05-11T09:00:38.112Z,6.93
2023-05-11T09:05:39.903Z,6.05
2023-05-11T09:10:42.411Z,6.45
2023-05-11T09:15:43.915Z,6.85
2023-05-11T09:20:45.408Z,5.03
2023-05-11T09:25:48.898Z,6.22
2023-05-11T09:30:50.400Z,5.60
2023-05-11T09:35:54.065Z,5.63
2023-05-11T09:40:56.418Z,5.22
2023-05-11T09:46:01.760Z,5.32
2023-05-11T09:51:04.748Z,4.90
2023-05-11T09:56:06.560Z,4.53
2023-05-11T10:01:08.048Z,4.70
2023-05-11T10:06:09.731Z,5.57
2023-05-11T10:11:11.355Z,4.95
2023-05-11T10:16:14.780Z,5.20
2023-05-11T10:21:16.794Z,5.35
2023-05-11T10:26:18.318Z,4.85
2023-05-11T10:31:24.152Z,5.50
2023-05-11T10:36:26.436Z,5.38
2023-05-11T10:41:51.720Z,5.82
2023-05-11T10:47:06.441Z,4.90
2023-05-11T10:52:31.782Z,4.88
2023-05-11T10:57:42.061Z,4.72
2023-05-11T11:02:45.497Z,4.35
2023-05-11T11:08:00.440Z,5.10
2023-05-11T11:13:02.838Z,5.28
2023-05-11T11:18:19.239Z,4.72
2023-05-11T11:23:39.254Z,4.30
2023-05-11T11:29:02.002Z,5.07
2023-05-11T11:34:22.084Z,4.80
2023-05-11T11:39:25.515Z,5.38
2023-05-11T11:44:27.093Z,5.63
2023-05-11T11:49:28.636Z,4.80
2023-05-11T11:54:48.257Z,4.60
2023-05-11T12:05:09.319Z,5.00
2023-05-11T12:10:13.149Z,5.00
2023-05-11T12:15:24.953Z,4.53
2023-05-11T12:20:26.462Z,4.55
2023-05-11T12:25:27.910Z,4.30
2023-05-11T12:30:30.404Z,3.97
2023-05-11T12:35:32.914Z,3.72
2023-05-11T12:40:35.857Z,4.90
2023-05-11T12:45:37.350Z,4.70
2023-05-11T12:50:42.216Z,4.70
2023-05-11T12:55:43.909Z,4.75
2023-05-11T13:00:55.356Z,5.05
2023-05-11T13:06:10.241Z,4.82
2023-05-11T13:11:18.393Z,5.22
2023-05-11T13:16:28.531Z,5.00
2023-05-11T13:21:33.135Z,4.53
2023-05-11T13:26:34.610Z,4.75
2023-05-11T13:31:42.257Z,4.70
2023-05-11T13:36:43.834Z,5.00
2023-05-11T13:41:45.841Z,4.47
2023-05-11T13:46:47.394Z,5.10
2023-05-11T13:51:48.803Z,4.50
2023-05-11T13:56:50.472Z,4.82
2023-05-11T14:01:52.111Z,4.40
2023-05-11T14:06:53.695Z,4.90
2023-05-11T14:11:55.139Z,4.93
2023-05-11T14:16:57.295Z,4.50
2023-05-11T14:21:59.242Z,5.25
2023-05-11T14:27:00.809Z,4.63
2023-05-11T14:32:02.233Z,4.85
2023-05-11T14:37:04.389Z,4.85
2023-05-11T14:42:06.089Z,4.38
2023-05-11T14:47:08.059Z,4.25
2023-05-11T14:52:10.739Z,4.78
2023-05-11T14:57:14.031Z,5.15
2023-05-11T15:02:15.479Z,3.78
2023-05-11T15:07:16.882Z,4.25
2023-05-11T15:12:18.275Z,3.67
2023-05-11T15:17:19.814Z,4.30
2023-05-11T15:22:22.509Z,4.28
2023-05-11T15:27:23.998Z,4.88
2023-05-11T15:32:25.460Z,4.20
2023-05-11T15:37:27.540Z,4.32
2023-05-11T15:42:29.067Z,4.47
2023-05-11T15:47:33.833Z,4.90
2023-05-11T15:52:35.504Z,4.43
2023-05-11T15:57:37.639Z,5.45
2023-05-11T16:02:39.284Z,4.68
2023-05-11T16:07:40.811Z,4.85
2023-05-11T16:12:42.219Z,5.05
2023-05-11T16:17:43.677Z,4.53
2023-05-11T16:22:45.188Z,4.80
2023-05-11T16:27:49.538Z,3.83
2023-05-11T16:32:51.485Z,3.78
2023-05-11T16:37:54.019Z,3.58
2023-05-11T16:42:55.448Z,4.00
2023-05-11T16:47:56.984Z,3.97
2023-05-11T16:52:58.712Z,3.83
2023-05-11T16:58:00.177Z,4.20
2023-05-11T17:03:01.980Z,4.28
2023-05-11T17:08:03.562Z,4.65
2023-05-11T17:13:04.987Z,5.70
2023-05-11T17:18:06.495Z,5.88
2023-05-11T17:23:07.975Z,6.30
2023-05-11T17:28:09.432Z,5.60
2023-05-11T17:33:12.598Z,5.20
2023-05-11T17:38:14.194Z,4.93
2023-05-11T17:43:15.834Z,3.55
2023-05-11T17:48:17.936Z,3.33
2023-05-11T17:53:19.440Z,2.95
2023-05-11T17:58:21.193Z,2.63
2023-05-11T18:03:22.764Z,2.65
2023-05-11T18:08:24.315Z,2.53
2023-05-11T18:13:28.674Z,2.10
2023-05-11T18:18:30.513Z,1.80
2023-05-11T18:23:32.520Z,2.25
2023-05-11T18:28:33.925Z,2.00
2023-05-11T18:33:35.410Z,2.58
2023-05-11T18:38:37.088Z,2.17
2023-05-11T18:43:38.729Z,2.00
2023-05-11T18:48:40.192Z,2.10
2023-05-11T18:53:41.585Z,3.03
2023-05-11T18:58:47.900Z,2.78
2023-05-11T19:03:49.360Z,2.80
2023-05-11T19:08:51.755Z,2.30
2023-05-11T19:13:53.905Z,2.50
2023-05-11T19:18:56.868Z,2.20
2023-05-11T19:23:58.363Z,2.63
2023-05-11T19:28:59.820Z,2.78
2023-05-11T19:34:02.941Z,2.70
2023-05-11T19:39:04.531Z,2.65
2023-05-11T19:44:07.118Z,2.58
2023-05-11T19:49:08.824Z,2.90
2023-05-11T19:54:10.995Z,3.50
2023-05-11T19:59:12.702Z,3.40
2023-05-11T20:04:15.069Z,3.45
2023-05-11T20:09:16.680Z,2.80
2023-05-11T20:14:18.162Z,3.10
2023-05-11T20:19:19.591Z,2.92
2023-05-11T20:24:21.159Z,3.10
2023-05-11T20:29:22.760Z,2.75
2023-05-11T20:34:24.182Z,3.05
2023-05-11T20:39:25.651Z,3.22
2023-05-11T20:44:27.182Z,3.30
2023-05-11T20:49:38.209Z,3.10
2023-05-11T20:54:42.075Z,3.50
2023-05-11T21:04:48.517Z,2.75
2023-05-11T21:09:50.020Z,2.85
2023-05-11T21:14:51.577Z,2.53
2023-05-11T21:19:53.121Z,2.70
2023-05-11T21:24:54.505Z,2.90
2023-05-11T21:29:56.411Z,3.30
2023-05-11T21:35:00.620Z,2.88
2023-05-11T21:40:03.696Z,3.45
2023-05-11T21:45:05.516Z,2.83
2023-05-11T21:50:07.793Z,2.63
2023-05-11T21:55:09.612Z,2.30
2023-05-11T22:00:17.383Z,2.40
2023-05-11T22:05:19.583Z,2.45
2023-05-11T22:10:21.287Z,2.67
2023-05-11T22:15:22.830Z,2.67
2023-05-11T22:20:24.273Z,3.08
2023-05-11T22:25:27.426Z,3.20
2023-05-11T22:30:28.931Z,2.83
2023-05-11T22:35:30.404Z,2.90
2023-05-11T22:40:31.931Z,2.90
2023-05-11T22:45:33.479Z,3.03
2023-05-11T22:50:34.930Z,2.70
2023-05-11T22:55:36.392Z,3.65
2023-05-11T23:00:37.887Z,3.50
2023-05-11T23:05:39.304Z,3.72
2023-05-11T23:10:42.014Z,4.15
2023-05-11T23:15:43.722Z,3.58
2023-05-11T23:20:45.197Z,3.60
2023-05-11T23:25:46.960Z,3.75
2023-05-11T23:30:48.455Z,3.40
2023-05-11T23:35:49.908Z,3.45
2023-05-11T23:40:51.342Z,3.20
2023-05-11T23:45:52.783Z,3.17
2023-05-11T23:50:54.229Z,2.63
2023-05-11T23:55:55.736Z,2.72
